Time;durP1;ratioP1;P1;durP2;ratioP2;P2;SDS_P1;SDS_P2;PMS_P1;PMS_P2;Temp;Humidity;BMP_temperature;BMP_pressure;BME280_temperature;BME280_humidity;BME280_pressure;Samples;Min_cycle;Max_cycle;Signal;HPM_P1;HPM_P2
2020/12/09 00:00:28;;;;;;;;;0.00;0.00;;;;;13.87;67.22;99541.66;5070062;28;11474;-67
2020/12/09 00:02:55;;;;;;;;;0.00;0.00;;;;;13.82;67.48;99543.50;5069734;28;11640;-67
2020/12/09 00:05:22;;;;;;;;;0.00;0.00;;;;;13.73;67.61;99538.38;5070190;28;11481;-67
2020/12/09 00:07:48;;;;;;;;;1.00;0.00;;;;;13.77;67.23;99529.53;5069853;28;11515;-67
2020/12/09 00:10:15;;;;;;;;;0.00;0.00;;;;;13.71;68.00;99529.63;5069613;28;11516;-68
2020/12/09 00:12:41;;;;;;;;;0.00;0.00;;;;;13.75;68.01;99531.34;5069937;28;11552;-67
2020/12/09 00:15:09;;;;;;;;;0.00;0.00;;;;;13.79;67.63;99527.75;5069609;28;11460;-68
2020/12/09 00:17:36;;;;;;;;;0.00;0.00;;;;;13.80;67.86;99524.25;5069701;28;11531;-67
2020/12/09 00:20:04;;;;;;;;;0.00;0.00;;;;;13.68;68.05;99529.69;5069728;28;11470;-67
2020/12/09 00:22:30;;;;;;;;;0.00;0.00;;;;;13.76;68.30;99527.81;5066064;28;11591;-67
2020/12/09 00:24:57;;;;;;;;;0.00;0.00;;;;;13.75;68.15;99526.06;5069420;28;11483;-67
2020/12/09 00:27:24;;;;;;;;;0.00;0.00;;;;;13.69;68.22;99515.66;5069751;28;11560;-67
2020/12/09 00:29:50;;;;;;;;;0.00;0.00;;;;;13.76;67.40;99512.03;5069651;28;11491;-67
2020/12/09 00:32:16;;;;;;;;;0.00;0.00;;;;;13.69;67.50;99515.66;5069419;28;11545;-67
2020/12/09 00:34:43;;;;;;;;;1.00;1.00;;;;;13.70;68.12;99512.13;5069770;28;11469;-67
2020/12/09 00:37:09;;;;;;;;;3.00;0.00;;;;;13.58;68.64;99512.28;5069460;28;11566;-68
2020/12/09 00:39:35;;;;;;;;;1.00;0.00;;;;;13.55;70.00;99512.34;5069682;28;11569;-68
2020/12/09 00:42:01;;;;;;;;;1.00;1.00;;;;;13.59;69.82;99521.94;5069436;28;11545;-68
2020/12/09 00:44:28;;;;;;;;;1.00;1.00;;;;;13.44;69.59;99509.03;5069430;28;11492;-68
2020/12/09 00:46:55;;;;;;;;;0.50;0.50;;;;;13.17;70.56;99514.69;5069420;28;11487;-67
2020/12/09 00:49:21;;;;;;;;;1.00;1.00;;;;;12.98;71.02;99529.81;5069772;28;11560;-67
2020/12/09 00:51:47;;;;;;;;;0.50;0.50;;;;;12.56;73.75;99539.97;5069436;28;11469;-67
2020/12/09 00:54:13;;;;;;;;;2.00;0.50;;;;;12.63;73.97;99534.59;5069323;28;11554;-67
2020/12/09 00:56:42;;;;;;;;;0.75;0.75;;;;;12.42;74.59;99541.84;5069684;28;11488;-66
2020/12/09 00:59:09;;;;;;;;;2.00;1.00;;;;;12.27;75.18;99526.25;5069162;28;11480;-66
2020/12/09 01:01:36;;;;;;;;;1.00;1.00;;;;;12.40;74.71;99543.63;5069198;28;12262;-66
2020/12/09 01:04:02;;;;;;;;;1.00;1.00;;;;;12.31;74.93;99539.34;5069474;28;11568;-66
2020/12/09 01:06:33;;;;;;;;;2.00;2.00;;;;;12.13;76.36;99543.91;5069182;28;11481;-66
2020/12/09 01:09:00;;;;;;;;;1.00;1.00;;;;;12.21;76.03;99526.31;5069323;28;11487;-66
2020/12/09 01:11:26;;;;;;;;;1.00;1.00;;;;;12.12;76.27;99542.13;5069287;28;11579;-66
2020/12/09 01:13:52;;;;;;;;;1.50;1.50;;;;;12.81;74.10;99538.75;5069187;28;11490;-66
2020/12/09 01:16:18;;;;;;;;;1.00;1.00;;;;;12.95;73.15;99535.06;5069116;28;11481;-66
2020/12/09 01:18:45;;;;;;;;;2.25;2.25;;;;;12.89;73.18;99531.69;5069329;28;11549;-66
2020/12/09 01:21:11;;;;;;;;;1.00;1.00;;;;;12.95;72.59;99528.97;5068992;28;11490;-66
2020/12/09 01:23:38;;;;;;;;;3.00;1.50;;;;;12.95;72.27;99528.97;5069215;28;11543;-66
2020/12/09 01:26:09;;;;;;;;;2.00;2.00;;;;;13.01;72.82;99528.91;5069270;28;11487;-67
2020/12/09 01:28:35;;;;;;;;;2.25;2.00;;;;;13.08;72.44;99535.81;5065875;28;11565;-66
2020/12/09 01:31:02;;;;;;;;;2.00;2.00;;;;;12.91;72.61;99522.00;5072148;28;11480;-66
2020/12/09 01:33:28;;;;;;;;;2.25;2.25;;;;;12.56;73.40;99540.81;5072925;28;11492;-66
2020/12/09 01:35:55;;;;;;;;;2.75;2.75;;;;;11.90;76.22;99530.09;5072885;28;11497;-67
2020/12/09 01:38:21;;;;;;;;;3.00;3.00;;;;;12.10;76.54;99528.16;5072693;28;11560;-66
2020/12/09 01:40:47;;;;;;;;;2.50;2.50;;;;;12.62;74.11;99513.63;5072992;28;11486;-66
2020/12/09 01:43:14;;;;;;;;;3.00;3.00;;;;;12.97;73.04;99514.06;5072260;28;11522;-66
2020/12/09 01:45:40;;;;;;;;;3.25;3.00;;;;;12.79;72.86;99503.78;5072903;28;11488;-66
2020/12/09 01:48:09;;;;;;;;;3.00;3.00;;;;;12.70;72.85;99506.50;5072352;28;11582;-66
2020/12/09 01:50:35;;;;;;;;;2.50;2.50;;;;;12.71;72.93;99509.13;5072704;28;11492;-66
2020/12/09 01:53:03;;;;;;;;;3.00;3.00;;;;;12.61;73.20;99506.59;5072382;28;11508;-66
2020/12/09 01:55:29;;;;;;;;;3.75;3.75;;;;;12.49;73.45;99501.50;5072636;28;11676;-66
2020/12/09 01:57:55;;;;;;;;;2.75;2.75;;;;;12.23;74.29;99503.53;5072241;28;11533;-67
2020/12/09 02:00:21;;;;;;;;;5.00;3.75;;;;;11.85;75.98;99503.91;5072446;28;11587;-66
2020/12/09 02:02:47;;;;;;;;;2.00;2.00;;;;;11.73;77.00;99505.78;5072429;28;11591;-66
2020/12/09 02:05:14;;;;;;;;;3.00;2.25;;;;;11.61;76.91;99511.13;5071947;28;11526;-66
2020/12/09 02:07:40;;;;;;;;;3.00;2.00;;;;;11.49;77.13;99511.19;5072328;28;11484;-67
2020/12/09 02:10:07;;;;;;;;;2.75;1.75;;;;;11.37;77.80;99508.63;5071796;28;12340;-67
2020/12/09 02:12:34;;;;;;;;;2.00;2.00;;;;;11.13;79.36;99506.16;5072232;28;11575;-66
2020/12/09 02:15:00;;;;;;;;;1.25;1.25;;;;;11.11;78.54;99507.94;5067889;28;12024;-65
2020/12/09 02:17:27;;;;;;;;;1.25;0.75;;;;;10.99;78.69;99502.75;5072197;28;11482;-67
2020/12/09 02:19:53;;;;;;;;;2.50;1.25;;;;;10.83;80.08;99506.31;5071959;28;11477;-67
2020/12/09 02:22:20;;;;;;;;;1.00;1.00;;;;;10.77;79.79;99495.88;5072179;28;11481;-67
2020/12/09 02:24:46;;;;;;;;;1.00;1.00;;;;;10.95;78.85;99495.81;5071746;28;11501;-67
2020/12/09 02:27:13;;;;;;;;;0.50;0.50;;;;;10.59;80.42;99485.50;5071928;28;11557;-67
2020/12/09 02:29:39;;;;;;;;;0.00;0.00;;;;;10.84;78.72;99492.38;5071959;28;11529;-67
2020/12/09 02:32:05;;;;;;;;;0.00;0.00;;;;;10.71;78.99;99490.69;5071790;28;12228;-65
2020/12/09 02:34:32;;;;;;;;;0.25;0.25;;;;;10.89;77.50;99480.13;5072085;28;11588;-66
2020/12/09 02:36:58;;;;;;;;;0.25;0.00;;;;;10.95;77.25;99490.56;5071552;28;11477;-66
2020/12/09 02:39:33;;;;;;;;;0.00;0.00;;;;;11.06;76.86;99483.53;5071782;28;11580;-66
2020/12/09 02:41:59;;;;;;;;;0.00;0.00;;;;;11.32;76.25;99484.22;5071547;28;11672;-65
2020/12/09 02:44:26;;;;;;;;;1.50;0.00;;;;;11.36;75.27;99472.81;5071423;28;11566;-66
2020/12/09 02:46:52;;;;;;;;;0.75;0.75;;;;;11.23;76.38;99481.66;5071664;28;12212;-67
2020/12/09 02:49:18;;;;;;;;;1.00;0.00;;;;;11.29;74.84;99460.66;5071667;28;11552;-66
2020/12/09 02:51:45;;;;;;;;;0.00;0.00;;;;;11.17;75.82;99471.22;5071348;28;11598;-67
2020/12/09 02:54:11;;;;;;;;;0.00;0.00;;;;;11.35;75.23;99476.31;5071283;28;11473;-67
2020/12/09 02:56:38;;;;;;;;;1.00;0.00;;;;;11.00;76.08;99473.94;5071436;28;11466;-67
2020/12/09 02:59:04;;;;;;;;;1.00;0.00;;;;;11.18;75.91;99486.06;5071100;28;11475;-67
2020/12/09 03:01:33;;;;;;;;;0.00;0.00;;;;;11.22;75.21;99490.41;5071447;28;11579;-66
2020/12/09 03:04:00;;;;;;;;;0.50;0.50;;;;;11.30;75.52;99488.59;5067089;28;11485;-66
2020/12/09 03:06:27;;;;;;;;;0.00;0.00;;;;;11.43;74.97;99485.03;5071252;28;12191;-66
2020/12/09 03:08:53;;;;;;;;;0.00;0.00;;;;;11.31;75.54;99485.09;5071197;28;11500;-66
2020/12/09 03:11:19;;;;;;;;;1.00;0.00;;;;;11.29;74.56;99482.50;5070988;28;11567;-66
2020/12/09 03:13:46;;;;;;;;;0.00;0.00;;;;;11.18;74.54;99481.69;5070985;28;11528;-65
2020/12/09 03:16:13;;;;;;;;;0.00;0.00;;;;;11.17;75.32;99482.56;5070821;28;11496;-66
2020/12/09 03:18:39;;;;;;;;;0.00;0.00;;;;;11.13;74.53;99482.59;5070855;28;11471;-66
2020/12/09 03:21:06;;;;;;;;;0.00;0.00;;;;;11.13;74.81;99479.97;5070736;28;11601;-66
2020/12/09 03:23:34;;;;;;;;;0.00;0.00;;;;;11.15;75.60;99478.19;5070994;28;11465;-66
2020/12/09 03:26:00;;;;;;;;;0.00;0.00;;;;;11.43;74.75;99480.63;5066730;28;11481;-66
2020/12/09 03:28:26;;;;;;;;;0.25;0.00;;;;;11.39;74.87;99478.06;5070826;28;11453;-67
2020/12/09 03:30:53;;;;;;;;;0.75;0.00;;;;;11.46;74.52;99469.25;5070666;28;12199;-67
2020/12/09 03:33:19;;;;;;;;;0.25;0.00;;;;;11.27;74.06;99465.03;5070606;28;11482;-67
2020/12/09 03:35:46;;;;;;;;;0.50;0.50;;;;;11.14;74.40;99460.75;5070660;28;11487;-66
2020/12/09 03:38:12;;;;;;;;;0.00;0.00;;;;;11.13;74.66;99480.84;5070137;28;11667;-66
2020/12/09 03:40:39;;;;;;;;;0.00;0.00;;;;;11.21;74.29;99486.03;5070457;28;11525;-66
2020/12/09 03:43:05;;;;;;;;;0.00;0.00;;;;;11.26;73.89;99487.75;5070152;28;11595;-67
2020/12/09 03:45:31;;;;;;;;;0.00;0.00;;;;;11.36;74.02;99480.69;5070778;28;11553;-67
2020/12/09 03:47:58;;;;;;;;;0.00;0.00;;;;;11.36;74.32;99478.06;5070171;28;11547;-66
2020/12/09 03:50:24;;;;;;;;;0.25;0.00;;;;;11.30;73.99;99462.38;5070374;28;11494;-66
2020/12/09 03:52:51;;;;;;;;;0.00;0.00;;;;;11.38;74.22;99478.94;5069877;28;12294;-67
2020/12/09 03:55:17;;;;;;;;;0.00;0.00;;;;;11.14;75.19;99476.47;5070099;28;11480;-67
2020/12/09 03:57:43;;;;;;;;;0.75;0.00;;;;;11.11;76.12;99486.97;5070432;28;12496;-66
2020/12/09 04:00:09;;;;;;;;;0.00;0.00;;;;;11.01;76.14;99478.28;5069942;28;11481;-66
2020/12/09 04:02:35;;;;;;;;;0.67;0.67;;;;;10.83;77.39;99470.53;5070306;28;11572;-66
2020/12/09 04:05:03;;;;;;;;;0.00;0.00;;;;;10.96;77.08;99476.59;5070017;28;12277;-66
2020/12/09 04:07:29;;;;;;;;;0.00;0.00;;;;;10.79;77.51;99467.97;5066340;28;11573;-66
2020/12/09 04:09:55;;;;;;;;;0.00;0.00;;;;;10.79;77.42;99475.81;5069727;28;11704;-66
2020/12/09 04:12:23;;;;;;;;;0.00;0.00;;;;;10.84;77.05;99471.44;5070163;28;11516;-66
2020/12/09 04:14:50;;;;;;;;;0.00;0.00;;;;;10.74;77.57;99474.97;5070097;28;12307;-67
2020/12/09 04:17:16;;;;;;;;;0.00;0.00;;;;;10.80;77.35;99474.94;5069874;28;11482;-66
2020/12/09 04:19:42;;;;;;;;;0.00;0.00;;;;;11.01;76.38;99470.44;5070170;28;11495;-66
2020/12/09 04:22:09;;;;;;;;;0.00;0.00;;;;;11.12;75.91;99478.25;5069874;28;12213;-66
2020/12/09 04:24:35;;;;;;;;;0.00;0.00;;;;;11.09;76.56;99488.72;5069904;28;11507;-66
2020/12/09 04:27:01;;;;;;;;;0.00;0.00;;;;;11.25;74.91;99491.25;5069696;28;11565;-66
2020/12/09 04:29:28;;;;;;;;;0.00;0.00;;;;;11.13;75.63;99490.44;5069877;28;11482;-66
2020/12/09 04:31:54;;;;;;;;;1.00;0.00;;;;;11.20;75.79;99486.91;5069653;28;12226;-66
2020/12/09 04:34:21;;;;;;;;;0.00;0.00;;;;;11.39;74.37;99488.53;5069890;28;11489;-66
2020/12/09 04:36:49;;;;;;;;;0.00;0.00;;;;;11.15;74.86;99488.69;5069657;28;11464;-66
2020/12/09 04:39:16;;;;;;;;;1.00;0.00;;;;;11.11;75.03;99482.59;5069533;28;11618;-66
2020/12/09 04:41:43;;;;;;;;;0.00;0.00;;;;;11.06;74.74;99478.28;5069508;28;11595;-66
2020/12/09 04:44:09;;;;;;;;;0.00;0.00;;;;;11.11;74.91;99490.47;5069237;28;11479;-66
2020/12/09 04:46:41;;;;;;;;;0.25;0.25;;;;;11.33;74.77;99488.59;5069564;28;11511;-66
2020/12/09 04:49:13;;;;;;;;;0.00;0.00;;;;;11.52;74.05;99492.78;5070901;28;11600;-66
2020/12/09 04:54:15;;;;;;;;;0.50;0.50;;;;;11.55;74.89;99495.41;5128681;27;13450;-65
2020/12/09 04:56:54;;;;;;;;;0.00;0.00;;;;;11.72;73.88;99504.03;5110343;28;11456;-67
2020/12/09 04:59:24;;;;;;;;;0.00;0.00;;;;;11.43;74.32;99500.75;5110358;28;11493;-67
2020/12/09 05:02:01;;;;;;;;;0.00;0.00;;;;;11.37;73.80;99511.25;5110331;28;11590;-67
2020/12/09 05:04:32;;;;;;;;;0.75;0.75;;;;;11.41;73.31;99519.09;5105829;28;11554;-67
2020/12/09 05:07:05;;;;;;;;;3.50;1.00;;;;;11.43;73.88;99511.22;5105332;28;11458;-67
2020/12/09 05:09:38;;;;;;;;;1.00;0.00;;;;;11.31;73.73;99511.28;5105461;28;11486;-67
2020/12/09 05:12:07;;;;;;;;;0.00;0.00;;;;;11.23;74.53;99520.97;5105942;28;11481;-68
2020/12/09 05:14:37;;;;;;;;;0.50;0.50;;;;;11.23;74.08;99528.81;5107529;28;11581;-64
2020/12/09 05:17:05;;;;;;;;;0.00;0.00;;;;;11.06;75.03;99530.69;5107095;28;11482;-65
2020/12/09 05:19:32;;;;;;;;;0.00;0.00;;;;;11.32;74.59;99534.03;5107060;28;11468;-66
2020/12/09 05:21:59;;;;;;;;;3.50;0.00;;;;;11.39;73.52;99535.72;5102772;28;11458;-66
2020/12/09 05:24:25;;;;;;;;;0.00;0.00;;;;;11.44;73.73;99541.78;5107334;28;11459;-66
2020/12/09 05:26:52;;;;;;;;;0.50;0.25;;;;;11.38;73.85;99547.09;5106834;28;11474;-66
2020/12/09 05:29:20;;;;;;;;;0.00;0.00;;;;;11.25;74.26;99542.78;5106574;28;11572;-66
2020/12/09 05:31:47;;;;;;;;;0.00;0.00;;;;;11.28;75.21;99553.25;5106970;28;11539;-67
2020/12/09 08:12:49;;;;;;;;;5.00;5.00;;;;;12.71;69.67;99694.72;5116092;27;13185;-74
2020/12/09 08:15:15;;;;;;;;;3.00;3.00;;;;;12.87;69.22;99693.69;5097473;28;8848;-75
2020/12/09 08:17:47;;;;;;;;;3.00;3.00;;;;;12.79;69.47;99679.78;5095414;28;11580;-74
2020/12/09 08:20:14;;;;;;;;;4.25;2.00;;;;;12.83;69.28;99697.25;5096674;28;11483;-74
2020/12/09 08:22:58;;;;;;;;;3.00;3.00;;;;;12.86;69.19;99702.47;5094544;28;11621;-73
2020/12/09 08:25:25;;;;;;;;;3.00;3.00;;;;;12.86;68.81;99686.69;5095611;28;11487;-73
2020/12/09 08:27:56;;;;;;;;;3.00;3.00;;;;;12.98;68.19;99681.34;5098006;28;12208;-74
2020/12/09 08:30:26;;;;;;;;;3.00;3.00;;;;;12.95;68.49;99707.66;5095262;28;11513;-72
2020/12/09 08:33:04;;;;;;;;;2.00;2.00;;;;;12.11;69.93;99708.34;5097750;28;11489;-74
2020/12/09 08:35:42;;;;;;;;;1.00;1.00;;;;;12.54;69.26;99704.50;5099064;28;11549;-74
2020/12/09 08:38:09;;;;;;;;;1.50;1.50;;;;;12.43;68.42;99707.25;5095566;28;11603;-75
2020/12/09 08:40:35;;;;;;;;;0.75;0.75;;;;;12.16;68.88;99712.69;5097584;28;11646;-73
2020/12/09 08:43:02;;;;;;;;;1.00;1.00;;;;;12.01;69.72;99707.53;5094615;28;11548;-73
2020/12/09 08:45:31;;;;;;;;;3.50;2.00;;;;;11.96;68.98;99713.69;5095068;28;11474;-74
2020/12/09 08:47:57;;;;;;;;;2.75;0.00;;;;;11.62;70.89;99731.38;5090425;28;12227;-73
2020/12/09 08:50:23;;;;;;;;;1.00;1.00;;;;;11.65;71.91;99722.59;5097578;28;11498;-73
2020/12/09 08:52:49;;;;;;;;;1.00;1.00;;;;;11.77;72.16;99727.78;5095522;28;11472;-73
2020/12/09 08:55:16;;;;;;;;;0.00;0.00;;;;;11.82;71.33;99731.25;5096511;28;11573;-74
2020/12/09 08:57:42;;;;;;;;;2.00;0.00;;;;;12.06;71.81;99731.13;5096798;28;11483;-76
2020/12/09 09:00:09;;;;;;;;;1.00;1.00;;;;;12.32;70.40;99723.94;5094759;28;12197;-75
2020/12/09 09:02:36;;;;;;;;;1.75;1.75;;;;;12.55;69.18;99735.13;5097490;28;11498;-76
2020/12/09 09:05:03;;;;;;;;;0.00;0.00;;;;;12.72;68.49;99733.28;5094167;28;11587;-74
2020/12/09 09:07:29;;;;;;;;;2.00;2.00;;;;;12.75;68.59;99738.47;5098102;28;11480;-75
2020/12/09 09:09:58;;;;;;;;;1.00;1.00;;;;;12.71;68.43;99734.13;5094624;28;11497;-72
2020/12/09 09:12:24;;;;;;;;;0.75;0.75;;;;;12.16;71.12;99738.06;5096963;28;11532;-74
2020/12/09 09:14:50;;;;;;;;;1.50;1.50;;;;;12.57;69.23;99741.25;5094787;28;11570;-74
2020/12/09 09:17:17;;;;;;;;;1.50;1.50;;;;;12.46;69.56;99748.34;5096135;28;11615;-78
2020/12/09 09:19:44;;;;;;;;;5.25;1.25;;;;;12.48;70.01;99747.47;5096369;28;11503;-77
2020/12/09 09:22:11;;;;;;;;;3.00;2.00;;;;;12.57;69.01;99757.03;5092566;28;11480;-74
2020/12/09 09:24:38;;;;;;;;;1.50;1.50;;;;;12.13;71.35;99754.69;5083420;28;11477;-76
2020/12/09 09:27:09;;;;;;;;;1.00;1.00;;;;;12.05;71.12;99751.25;5080814;28;11558;-72
2020/12/09 09:29:35;;;;;;;;;1.75;1.00;;;;;12.03;71.54;99752.13;5083605;28;11587;-71
2020/12/09 09:32:02;;;;;;;;;0.75;0.75;;;;;11.78;71.25;99750.50;5080336;28;11500;-71
2020/12/09 09:34:29;;;;;;;;;2.00;2.00;;;;;11.92;72.54;99754.81;5084382;28;12259;-70
2020/12/09 09:36:55;;;;;;;;;4.25;3.00;;;;;11.56;73.86;99738.34;5080362;28;11493;-70
2020/12/09 09:39:21;;;;;;;;;0.75;0.75;;;;;11.57;73.81;99756.69;5083509;28;11547;-70
2020/12/09 09:41:48;;;;;;;;;1.00;1.00;;;;;11.62;74.49;99754.06;5081101;28;11479;-71
2020/12/09 09:44:14;;;;;;;;;1.00;1.00;;;;;12.03;73.40;99752.13;5082450;28;11467;-70
2020/12/09 09:46:40;;;;;;;;;0.00;0.00;;;;;11.66;73.60;99722.56;5082353;28;11503;-71
2020/12/09 09:49:06;;;;;;;;;7.50;7.00;;;;;11.61;74.08;99752.34;5080903;28;11475;-82
2020/12/09 09:51:33;;;;;;;;;5.00;3.00;;;;;12.25;73.56;99764.25;5083755;28;11576;-74
2020/12/09 09:54:00;;;;;;;;;5.25;3.00;;;;;11.86;74.03;99759.22;5078347;28;11592;-78
2020/12/09 09:56:26;;;;;;;;;5.75;5.75;;;;;11.78;74.60;99766.25;5080476;28;11478;-76
2020/12/09 09:58:52;;;;;;;;;3.50;1.25;;;;;11.83;74.05;99754.88;5082576;28;11490;-80
2020/12/09 10:01:18;;;;;;;;;4.50;2.25;;;;;12.08;73.58;99750.38;5081575;28;11598;-80
2020/12/09 10:03:45;;;;;;;;;1.50;1.50;;;;;12.36;72.21;99754.56;5081347;28;11480;-78
2020/12/09 10:06:11;;;;;;;;;8.00;8.00;;;;;11.92;73.35;99764.44;5082710;28;12225;-77
2020/12/09 10:08:38;;;;;;;;;22.33;18.33;;;;;11.75;74.26;99759.25;5079935;28;11573;-77
2020/12/09 10:11:04;;;;;;;;;15.00;12.00;;;;;12.17;72.89;99760.78;5083053;28;8817;-79
2020/12/09 10:13:31;;;;;;;;;15.00;12.00;;;;;12.42;71.78;99742.25;5079775;28;8822;-77
2020/12/09 10:15:57;;;;;;;;;3.75;3.50;;;;;12.64;71.49;99758.72;5083155;28;11508;-77
2020/12/09 10:18:24;;;;;;;;;4.50;3.00;;;;;12.67;70.48;99758.69;5078483;28;12774;-77
2020/12/09 10:20:50;;;;;;;;;4.00;4.00;;;;;12.47;71.15;99760.59;5080948;28;12340;-78
2020/12/09 10:23:17;;;;;;;;;3.00;3.00;;;;;12.64;71.13;99763.97;5081073;28;11524;-78
2020/12/09 10:25:45;;;;;;;;;3.00;3.00;;;;;12.42;71.71;99746.63;5081378;28;11480;-79
2020/12/09 10:28:12;;;;;;;;;3.00;3.00;;;;;12.67;71.04;99753.44;5080734;28;12289;-79
2020/12/09 10:30:40;;;;;;;;;2.00;2.00;;;;;12.62;70.49;99756.09;5082012;28;11471;-79
2020/12/09 10:33:07;;;;;;;;;3.00;3.00;;;;;12.79;70.51;99753.34;5079458;28;11517;-75
2020/12/09 10:35:33;;;;;;;;;5.25;3.00;;;;;12.79;70.05;99753.34;5081808;28;11440;-76
2020/12/09 10:37:59;;;;;;;;;3.00;3.00;;;;;12.61;70.46;99748.22;5079402;28;11489;-73
2020/12/09 10:40:28;;;;;;;;;4.00;4.00;;;;;12.57;69.95;99751.78;5081836;28;12309;-74
2020/12/09 10:42:55;;;;;;;;;5.75;3.50;;;;;12.39;71.71;99752.78;5079718;28;11520;-77
2020/12/09 10:46:04;;;;;;;;;2.00;2.00;;;;;12.75;70.27;99762.13;5125219;27;13414;-72
2020/12/09 10:48:30;;;;;;;;;2.50;2.50;;;;;12.56;70.71;99757.91;5106666;28;11560;-71
2020/12/09 10:50:57;;;;;;;;;3.00;3.00;;;;;12.64;70.82;99742.94;5107412;28;11462;-72
2020/12/09 10:53:23;;;;;;;;;3.00;3.00;;;;;12.37;71.50;99764.16;5106862;28;11480;-73
2020/12/09 10:55:59;;;;;;;;;3.00;3.00;;;;;12.05;71.23;99705.75;5086638;27;11500;-72
2020/12/09 10:58:25;;;;;;;;;1.25;0.00;;;;;12.22;72.10;99759.00;5029092;27;11584;-72
2020/12/09 11:00:52;;;;;;;;;3.00;2.00;;;;;11.96;72.79;99750.41;5067195;28;11575;-71
2020/12/09 11:03:19;;;;;;;;;2.00;2.00;;;;;12.11;73.25;99747.69;5066788;28;11517;-73
2020/12/09 11:05:45;;;;;;;;;3.00;1.25;;;;;12.57;71.50;99746.53;5066697;28;11653;-71
2020/12/09 11:08:12;;;;;;;;;3.00;3.00;;;;;12.56;70.95;99739.53;5066427;28;11603;-71
2020/12/09 11:10:38;;;;;;;;;7.25;7.25;;;;;12.59;71.59;99740.38;5066766;28;11509;-72
2020/12/09 11:13:04;;;;;;;;;6.00;5.50;;;;;12.77;71.11;99734.06;5065966;28;11522;-71
2020/12/09 11:15:30;;;;;;;;;4.50;4.25;;;;;12.85;70.73;99733.16;5066195;28;11574;-72
2020/12/09 11:17:57;;;;;;;;;1.25;1.25;;;;;12.83;69.18;99713.03;5065794;28;11524;-72
2020/12/09 11:20:24;;;;;;;;;1.00;1.00;;;;;12.88;69.06;99713.81;5065641;28;12263;-72
2020/12/09 11:22:50;;;;;;;;;1.00;0.00;;;;;12.87;68.82;99714.72;5065848;28;11531;-72
2020/12/09 11:25:16;;;;;;;;;0.00;0.00;;;;;12.97;68.63;99717.28;5066161;28;11489;-72
2020/12/09 11:27:42;;;;;;;;;1.75;0.00;;;;;13.02;68.21;99720.75;5066180;28;11585;-73
2020/12/09 11:30:08;;;;;;;;;0.00;0.00;;;;;13.04;67.32;99729.47;5066295;28;11493;-73
2020/12/09 11:32:35;;;;;;;;;2.00;0.25;;;;;13.13;67.76;99723.25;5065821;28;11500;-74
2020/12/09 11:35:03;;;;;;;;;1.25;1.00;;;;;13.07;68.97;99733.81;5066119;28;12370;-73
2020/12/09 11:37:33;;;;;;;;;1.00;1.00;;;;;13.80;66.82;99737.38;5062101;28;11559;-72
2020/12/09 11:39:59;;;;;;;;;0.00;0.00;;;;;14.23;65.19;99730.66;5062385;28;11563;-72
2020/12/09 11:42:26;;;;;;;;;2.00;1.00;;;;;14.14;64.75;99704.41;5065872;28;11481;-73
2020/12/09 11:44:52;;;;;;;;;0.00;0.00;;;;;14.25;64.56;99724.44;5065414;28;11707;-72
2020/12/09 11:47:19;;;;;;;;;0.25;0.00;;;;;14.22;63.90;99713.97;5065607;28;12212;-72
2020/12/09 11:49:45;;;;;;;;;0.50;0.50;;;;;14.05;65.05;99725.59;5065729;28;12306;-73
2020/12/09 11:52:11;;;;;;;;;1.75;1.00;;;;;13.62;66.46;99737.59;5065995;28;11569;-72
2020/12/09 11:54:38;;;;;;;;;1.00;1.00;;;;;13.56;66.70;99724.50;5065066;28;11503;-71
2020/12/09 11:57:05;;;;;;;;;0.00;0.00;;;;;13.82;66.02;99739.09;5054118;28;11558;-72
2020/12/09 11:59:31;;;;;;;;;2.00;1.00;;;;;13.98;65.40;99723.97;5052369;28;11471;-72
2020/12/09 12:01:58;;;;;;;;;0.25;0.25;;;;;14.16;65.13;99728.94;5052395;28;11496;-73
2020/12/09 12:04:24;;;;;;;;;2.00;2.00;;;;;14.12;65.30;99730.75;5051683;28;11632;-75
2020/12/09 12:06:50;;;;;;;;;1.00;1.00;;;;;14.27;64.65;99722.69;5052382;28;11559;-73
2020/12/09 12:09:16;;;;;;;;;0.00;0.00;;;;;14.35;64.36;99719.94;5051983;28;11524;-74
2020/12/09 12:11:44;;;;;;;;;1.00;1.00;;;;;14.57;63.46;99716.06;5052073;28;11590;-73
2020/12/09 12:14:10;;;;;;;;;0.00;0.00;;;;;14.88;62.01;99717.31;5050969;28;11635;-72
2020/12/09 12:16:36;;;;;;;;;1.50;1.00;;;;;15.02;61.91;99710.88;5051259;28;11593;-73
2020/12/09 12:19:03;;;;;;;;;3.00;1.25;;;;;15.11;61.91;99715.09;5051539;28;11581;-73
2020/12/09 12:21:30;;;;;;;;;1.00;1.00;;;;;15.15;61.56;99711.53;5050726;28;11620;-73
2020/12/09 12:23:56;;;;;;;;;1.00;1.00;;;;;15.04;61.72;99702.94;5051099;28;11493;-72
2020/12/09 12:26:23;;;;;;;;;1.00;0.00;;;;;14.93;61.78;99710.19;5051399;28;12265;-73
2020/12/09 12:28:50;;;;;;;;;0.50;0.25;;;;;14.84;61.98;99723.50;5052079;28;11509;-69
2020/12/09 12:31:19;;;;;;;;;0.00;0.00;;;;;14.80;62.56;99729.72;5051626;28;11547;-72
2020/12/09 12:33:46;;;;;;;;;0.00;0.00;;;;;14.55;63.00;99691.50;5051557;28;11496;-71
2020/12/09 12:36:13;;;;;;;;;1.00;1.00;;;;;14.78;63.48;99715.72;5051771;28;11513;-70
2020/12/09 12:38:40;;;;;;;;;1.50;1.50;;;;;14.54;63.66;99695.03;5051572;28;11599;-71
2020/12/09 12:41:07;;;;;;;;;0.25;0.25;;;;;14.56;63.70;99714.34;5051636;28;11585;-71
2020/12/09 12:43:33;;;;;;;;;1.00;1.00;;;;;14.41;64.34;99717.22;5051316;28;11556;-70
2020/12/09 12:46:01;;;;;;;;;1.00;1.00;;;;;14.28;64.55;99718.25;5047381;28;11458;-71
2020/12/09 12:48:27;;;;;;;;;1.25;1.25;;;;;14.25;64.67;99708.66;5051373;28;11564;-70
2020/12/09 12:50:53;;;;;;;;;1.00;1.00;;;;;14.15;65.30;99707.03;5051531;28;11623;-71
2020/12/09 12:53:19;;;;;;;;;1.00;0.00;;;;;14.02;65.48;99721.25;5051259;28;11498;-71
2020/12/09 12:55:45;;;;;;;;;1.00;1.00;;;;;13.87;65.65;99704.81;5050816;28;11486;-71
2020/12/09 12:58:12;;;;;;;;;0.00;0.00;;;;;13.97;65.10;99706.44;5049643;28;11488;-69
2020/12/09 13:00:38;;;;;;;;;2.00;0.25;;;;;14.02;65.19;99720.41;5048340;28;12344;-69
2020/12/09 13:03:07;;;;;;;;;0.75;0.75;;;;;13.85;65.52;99703.94;5049988;28;11495;-69
2020/12/09 13:05:33;;;;;;;;;0.00;0.00;;;;;13.81;65.61;99697.00;5048835;28;11473;-69
2020/12/09 13:07:59;;;;;;;;;2.00;2.00;;;;;13.70;67.09;99706.81;5049171;28;11473;-69
2020/12/09 13:10:26;;;;;;;;;2.00;1.00;;;;;13.77;67.44;99703.19;5049722;28;12316;-69
2020/12/09 13:12:52;;;;;;;;;1.00;1.00;;;;;13.71;67.79;99714.66;5049793;28;11532;-69
2020/12/09 13:15:19;;;;;;;;;3.75;3.75;;;;;13.63;68.07;99689.34;5049565;28;11501;-69
2020/12/09 13:17:45;;;;;;;;;3.75;3.00;;;;;13.71;68.69;99716.44;5049225;28;11519;-70
2020/12/09 13:20:12;;;;;;;;;4.00;4.00;;;;;13.70;68.86;99717.31;5050098;28;11500;-71
2020/12/09 13:22:39;;;;;;;;;4.00;3.00;;;;;13.79;68.67;99709.28;5050468;28;11513;-74
2020/12/09 13:25:06;;;;;;;;;4.00;4.00;;;;;13.74;69.23;99713.75;5050484;28;11581;-72
2020/12/09 13:27:33;;;;;;;;;3.25;3.00;;;;;13.64;70.03;99712.16;5050491;28;12235;-73
2020/12/09 13:30:02;;;;;;;;;3.00;3.00;;;;;13.70;69.94;99706.81;5046904;28;11581;-73
2020/12/09 13:32:28;;;;;;;;;4.00;3.00;;;;;13.63;70.32;99710.38;5050332;28;11511;-73
2020/12/09 13:34:54;;;;;;;;;6.25;3.75;;;;;13.69;70.06;99710.34;5050413;28;11549;-74
2020/12/09 13:37:21;;;;;;;;;7.50;2.75;;;;;13.65;69.98;99713.88;5050341;28;11579;-73
2020/12/09 13:39:47;;;;;;;;;2.00;2.00;;;;;13.74;69.77;99709.38;5050502;28;11585;-72
2020/12/09 13:42:14;;;;;;;;;2.00;2.00;;;;;13.56;70.28;99706.09;5050567;28;11630;-73
2020/12/09 13:44:40;;;;;;;;;3.00;3.00;;;;;13.68;69.92;99713.81;5049995;28;11581;-73
2020/12/09 13:47:06;;;;;;;;;2.00;2.00;;;;;13.55;70.32;99714.88;5049784;28;11510;-72
2020/12/09 13:49:32;;;;;;;;;1.75;1.75;;;;;13.67;69.41;99712.09;5049981;28;11525;-76
2020/12/09 13:51:59;;;;;;;;;1.50;1.50;;;;;13.59;69.67;99708.69;5048408;28;11566;-74
2020/12/09 13:54:26;;;;;;;;;2.00;2.00;;;;;13.58;69.78;99718.34;5049700;28;11494;-69
2020/12/09 13:56:52;;;;;;;;;2.75;2.75;;;;;13.65;70.11;99719.16;5050242;28;11521;-71
2020/12/09 13:59:19;;;;;;;;;4.00;2.50;;;;;13.64;69.90;99722.66;5050210;28;11664;-74
2020/12/09 14:01:48;;;;;;;;;3.00;3.00;;;;;13.60;70.59;99721.81;5050083;28;11530;-76
2020/12/09 14:04:14;;;;;;;;;2.75;2.75;;;;;13.60;70.36;99726.22;5049953;28;11611;-72
2020/12/09 14:06:40;;;;;;;;;4.00;4.00;;;;;13.50;70.21;99735.09;5049619;28;11517;-72
2020/12/09 14:09:07;;;;;;;;;7.00;6.25;;;;;13.61;70.29;99727.94;5047177;28;11605;-73
2020/12/09 14:11:34;;;;;;;;;3.75;3.75;;;;;13.68;70.41;99725.22;5046016;28;11538;-72
2020/12/09 14:14:01;;;;;;;;;3.75;3.75;;;;;13.82;69.79;99738.22;5047565;28;11637;-72